»·PEaware :: SWA2145 KSMF-KSAN

SWA2145 :: KSMF-KSAN

FLIGHT INFORMATION

Flight Status: Arrived
Operator:
Southwest Airlines
More flights by this operator :: More flights under this callsign
Pilot: Daniel W. (24238)
Aircraft: BOEING 737-700
(B737)
More flights by this aircraft type
Origin: KSMF Sacramento Intl
United States
Destination: KSAN San Diego Intl-Lindbergh
United States
More flights between these airports :: More routes between these airports
Route: +FTHIL2 FRA EHF HUULK COMIX2
File this flight plan on PilotEdge
Remarks: PBN / A1D1O1S2T1 NAV / RNVD1E1A1 RNP10 DOF / 200213 REG / N278WN EET / KZLA0031 CODE / A2C635 PER / C
Altitude:
(Current/Filed)
37,000ft
Speed:
(Current/Filed)
440kts
Departed: 13-Feb-20 11:22 AM
Arrived: 13-Feb-20 12:32 PM
Distance/Time
Traveled:
417nm/1:09
Distance/Time
To Go:
Arrived

Flight Plot

Page will automatically refresh every two minutes.

Flight plan parsing failed; only flown route is shown


Map Options




Map Legend


Flown Route
Filed Route
Departure Airport
Arrival Airport
Navaid (VOR, NDB)
Fix

Horizontal Profiles

Position Reports

Time Latitude Longitude Heading Altitude Ground
Speed
13-Feb-20 10:37 38.695145 -121.595089 45 36ft 0kts
13-Feb-20 10:39 38.695145 -121.595089 45 36ft 0kts
13-Feb-20 10:40 38.695145 -121.595089 45 36ft 0kts
13-Feb-20 10:40 38.695145 -121.595089 45 36ft 0kts
13-Feb-20 10:41 38.695145 -121.595089 45 36ft 0kts
13-Feb-20 10:43 38.695145 -121.595089 45 36ft 0kts
13-Feb-20 10:43 38.695145 -121.595089 45 36ft 0kts
13-Feb-20 10:44 38.695145 -121.595089 45 36ft 0kts
13-Feb-20 10:45 38.695145 -121.595089 45 36ft 0kts
13-Feb-20 10:46 38.695145 -121.595089 45 36ft 0kts
13-Feb-20 10:47 38.695145 -121.595089 45 36ft 0kts
13-Feb-20 10:48 38.695145 -121.595089 45 36ft 0kts
13-Feb-20 10:49 38.695145 -121.595089 45 36ft 0kts
13-Feb-20 10:50 38.695145 -121.595089 45 36ft 0kts
13-Feb-20 10:51 38.695145 -121.595089 45 36ft 0kts
13-Feb-20 10:52 38.695145 -121.595089 45 36ft 0kts
13-Feb-20 10:53 38.695145 -121.595089 45 36ft 0kts
13-Feb-20 10:54 38.695145 -121.595089 45 36ft 0kts
13-Feb-20 10:55 38.695145 -121.595089 45 36ft 0kts
13-Feb-20 10:56 38.695145 -121.595089 45 36ft 0kts
13-Feb-20 10:57 38.695145 -121.595089 45 36ft 0kts
13-Feb-20 10:58 38.695145 -121.595089 45 36ft 0kts
13-Feb-20 10:59 38.695145 -121.595089 45 36ft 0kts
13-Feb-20 11:00 38.695145 -121.595089 45 36ft 0kts
13-Feb-20 11:01 38.695145 -121.595089 45 36ft 0kts
13-Feb-20 11:02 38.695145 -121.595089 45 36ft 0kts
13-Feb-20 11:03 38.695145 -121.595089 45 36ft 0kts
13-Feb-20 11:04 38.695145 -121.595089 45 36ft 0kts
13-Feb-20 11:05 38.695145 -121.595089 45 36ft 0kts
13-Feb-20 11:06 38.695145 -121.595089 45 36ft 0kts
13-Feb-20 11:07 38.695145 -121.595089 45 36ft 0kts
13-Feb-20 11:08 38.695145 -121.595089 45 36ft 0kts
13-Feb-20 11:09 38.695145 -121.595089 45 36ft 0kts
13-Feb-20 11:10 38.695145 -121.595089 45 36ft 0kts
13-Feb-20 11:11 38.695145 -121.595089 45 36ft 0kts
13-Feb-20 11:12 38.695145 -121.595089 45 36ft 0kts
13-Feb-20 11:13 38.695144 -121.595089 45 36ft 0kts
13-Feb-20 11:14 38.694547 -121.595574 355 36ft 2kts
13-Feb-20 11:15 38.694430 -121.595540 330 36ft 0kts
13-Feb-20 11:16 38.694430 -121.595540 330 36ft 0kts
13-Feb-20 11:17 38.694531 -121.595657 308 36ft 8kts
13-Feb-20 11:18 38.694811 -121.598546 323 36ft 13kts
13-Feb-20 11:19 38.701507 -121.598577 0 36ft 28kts
13-Feb-20 11:20 38.707191 -121.599490 270 36ft 12kts
13-Feb-20 11:21 38.699859 -121.601238 180 36ft 110kts
13-Feb-20 11:22 38.658464 -121.586649 132 1638ft 195kts
13-Feb-20 11:23 38.622816 -121.517496 123 3557ft 263kts
13-Feb-20 11:24 38.581954 -121.437389 123 7297ft 275kts
13-Feb-20 11:25 38.538784 -121.352815 123 11051ft 298kts
13-Feb-20 11:26 38.487640 -121.252794 123 13456ft 359kts
13-Feb-20 11:27 38.431972 -121.142940 123 16954ft 377kts
13-Feb-20 11:28 38.373619 -121.028694 123 20149ft 391kts
13-Feb-20 11:29 38.313038 -120.910797 123 22996ft 404kts
13-Feb-20 11:30 38.250604 -120.789770 123 25462ft 414kts
13-Feb-20 11:31 38.187037 -120.666280 124 27629ft 421kts
13-Feb-20 11:32 38.121766 -120.541047 124 29464ft 428kts
13-Feb-20 11:33 38.055322 -120.413826 124 30909ft 437kts
13-Feb-20 11:34 37.985187 -120.288052 125 32422ft 439kts
13-Feb-20 11:35 37.897223 -120.181308 146 33805ft 443kts
13-Feb-20 11:36 37.790402 -120.101079 148 34945ft 449kts
13-Feb-20 11:37 37.682346 -120.020978 148 35968ft 453kts
13-Feb-20 11:38 37.572881 -119.939556 148 36935ft 457kts
13-Feb-20 11:39 37.462485 -119.857951 149 37184ft 460kts
13-Feb-20 11:40 37.352241 -119.776608 148 37188ft 460kts
13-Feb-20 11:41 37.241576 -119.695477 149 37188ft 461kts
13-Feb-20 11:42 37.130465 -119.615184 152 37187ft 463kts
13-Feb-20 11:43 37.008681 -119.564946 166 37184ft 463kts
13-Feb-20 11:44 36.883221 -119.526236 166 37181ft 464kts
13-Feb-20 11:45 36.758149 -119.487356 166 37181ft 465kts
13-Feb-20 11:46 36.632311 -119.448108 166 37183ft 465kts
13-Feb-20 11:47 36.506823 -119.409222 166 37183ft 466kts
13-Feb-20 11:48 36.380747 -119.370316 166 37180ft 466kts
13-Feb-20 11:49 36.255144 -119.331661 166 37180ft 466kts
13-Feb-20 11:50 36.129252 -119.293054 166 37180ft 466kts
13-Feb-20 11:51 36.003504 -119.254623 166 37179ft 466kts
13-Feb-20 11:52 35.877210 -119.216140 167 37173ft 467kts
13-Feb-20 11:53 35.753828 -119.178576 167 37170ft 467kts
13-Feb-20 11:54 35.630084 -119.141142 167 37168ft 467kts
13-Feb-20 11:55 35.503902 -119.102853 165 37161ft 467kts
13-Feb-20 11:56 35.384061 -119.041553 156 37160ft 468kts
13-Feb-20 11:57 35.265613 -118.975459 156 37165ft 468kts
13-Feb-20 11:58 35.146497 -118.909257 156 37176ft 468kts
13-Feb-20 11:59 35.028269 -118.843615 156 37194ft 469kts
13-Feb-20 12:00 34.909101 -118.777832 156 37204ft 469kts
13-Feb-20 12:01 34.790326 -118.712311 156 37209ft 469kts
13-Feb-20 12:02 34.671618 -118.647320 156 37209ft 468kts
13-Feb-20 12:03 34.554142 -118.578429 150 37205ft 470kts
13-Feb-20 12:04 34.441933 -118.497326 150 37202ft 469kts
13-Feb-20 12:05 34.328942 -118.417005 150 37185ft 469kts
13-Feb-20 12:06 34.216319 -118.336884 150 37186ft 470kts
13-Feb-20 12:07 34.107373 -118.259692 150 37166ft 469kts
13-Feb-20 12:08 33.994635 -118.180224 151 36849ft 472kts
13-Feb-20 12:09 33.886820 -118.104620 150 34015ft 469kts
13-Feb-20 12:10 33.773953 -118.027965 151 31072ft 455kts
13-Feb-20 12:11 33.665795 -117.956703 151 28697ft 433kts
13-Feb-20 12:12 33.562391 -117.888620 151 26343ft 416kts
13-Feb-20 12:13 33.463462 -117.821549 150 24041ft 402kts
13-Feb-20 12:14 33.377684 -117.738673 137 21787ft 391kts
13-Feb-20 12:15 33.297733 -117.653077 138 19575ft 381kts
13-Feb-20 12:16 33.219597 -117.570155 138 17243ft 375kts
13-Feb-20 12:17 33.142350 -117.489011 138 15029ft 364kts
13-Feb-20 12:18 33.061081 -117.420149 145 12822ft 355kts
13-Feb-20 12:19 32.981521 -117.353455 144 10731ft 339kts
13-Feb-20 12:20 32.912334 -117.295540 144 10409ft 277kts
13-Feb-20 12:21 32.849985 -117.243735 145 8920ft 269kts
13-Feb-20 12:22 32.803452 -117.179107 106 7430ft 263kts
13-Feb-20 12:23 32.785864 -117.095910 105 6062ft 253kts
13-Feb-20 12:24 32.768695 -117.021698 107 5607ft 219kts
13-Feb-20 12:25 32.742404 -116.959546 145 4750ft 205kts
13-Feb-20 12:26 32.693892 -116.971002 233 3767ft 195kts
13-Feb-20 12:27 32.692609 -117.031116 290 2871ft 188kts
13-Feb-20 12:28 32.708807 -117.087561 285 1956ft 159kts
13-Feb-20 12:30 32.719932 -117.133905 287 1005ft 142kts
13-Feb-20 12:31 32.730884 -117.178721 287 85ft 138kts
13-Feb-20 12:32 32.733465 -117.194384 149 23ft 10kts
13-Feb-20 12:33 32.731860 -117.195881 248 23ft 1kts
13-Feb-20 12:34 32.731859 -117.195886 248 23ft 0kts
13-Feb-20 12:35 32.731859 -117.195886 248 23ft 0kts
13-Feb-20 12:36 32.731859 -117.195886 248 23ft 0kts
13-Feb-20 12:37 32.731859 -117.195886 248 23ft 0kts
13-Feb-20 12:38 32.731859 -117.195886 248 23ft 0kts
13-Feb-20 12:39 32.731859 -117.195886 248 23ft 0kts

Navigation Log

Ident Type
Flight plan parsing failed, navigation log unavailable